createdAt,value
2023-03-19T00:01:06.236Z,1
2023-03-19T00:03:05.756Z,1
2023-03-19T00:05:05.648Z,1
2023-03-19T00:07:09.607Z,1
2023-03-19T00:09:09.530Z,1
2023-03-19T00:11:12.654Z,1
2023-03-19T00:13:05.962Z,1
2023-03-19T00:15:05.645Z,1
2023-03-19T00:19:05.754Z,1
2023-03-19T00:21:06.204Z,1
2023-03-19T00:23:06.050Z,1
2023-03-19T00:25:06.036Z,1
2023-03-19T00:27:09.622Z,1
2023-03-19T00:29:09.245Z,1
2023-03-19T00:31:06.120Z,1
2023-03-19T00:33:05.801Z,1
2023-03-19T00:35:09.484Z,1
2023-03-19T00:37:05.638Z,1
2023-03-19T00:39:09.374Z,1
2023-03-19T00:41:06.161Z,1
2023-03-19T00:43:05.634Z,1
2023-03-19T00:45:09.045Z,1
2023-03-19T00:47:06.214Z,1
2023-03-19T00:49:09.560Z,1
2023-03-19T00:53:06.063Z,1
2023-03-19T00:55:09.517Z,1
2023-03-19T00:57:09.596Z,1
2023-03-19T01:01:06.152Z,1
2023-03-19T01:03:06.092Z,1
2023-03-19T01:05:06.147Z,1
2023-03-19T01:07:05.709Z,1
2023-03-19T01:09:06.115Z,1
2023-03-19T01:11:05.818Z,1
2023-03-19T01:13:06.336Z,1
2023-03-19T01:15:09.220Z,1
2023-03-19T01:17:05.554Z,1
2023-03-19T01:19:09.631Z,1
2023-03-19T01:21:09.431Z,1
2023-03-19T01:23:09.561Z,1
2023-03-19T01:25:12.643Z,1
2023-03-19T01:27:05.940Z,1
2023-03-19T01:29:05.750Z,1
2023-03-19T01:31:06.367Z,1
2023-03-19T01:33:06.197Z,1
2023-03-19T01:35:09.432Z,1
2023-03-19T01:37:06.169Z,1
2023-03-19T01:39:05.666Z,1
2023-03-19T01:41:05.913Z,1
2023-03-19T01:43:05.754Z,1
2023-03-19T01:45:09.072Z,1
2023-03-19T01:47:06.279Z,1
2023-03-19T01:49:05.643Z,1
2023-03-19T01:51:05.995Z,1
2023-03-19T01:53:12.801Z,1
2023-03-19T01:55:05.766Z,1
2023-03-19T01:57:05.903Z,1
2023-03-19T01:59:05.768Z,1
2023-03-19T02:01:05.858Z,1
2023-03-19T02:03:05.980Z,1
2023-03-19T02:05:05.757Z,1
2023-03-19T02:07:06.299Z,1
2023-03-19T02:09:09.049Z,1
2023-03-19T02:11:06.037Z,1
2023-03-19T02:13:06.146Z,1
2023-03-19T02:15:08.676Z,1
2023-03-19T02:17:05.756Z,1
2023-03-19T02:19:12.520Z,1
2023-03-19T02:21:09.516Z,1
2023-03-19T02:23:05.639Z,1
2023-03-19T02:25:09.560Z,1
2023-03-19T02:27:05.846Z,1
2023-03-19T02:29:05.576Z,1
2023-03-19T02:31:06.191Z,1
2023-03-19T02:33:06.071Z,1
2023-03-19T02:35:06.418Z,1
2023-03-19T02:37:09.529Z,1
2023-03-19T02:39:12.631Z,1
2023-03-19T02:41:05.803Z,1
2023-03-19T02:43:12.781Z,1
2023-03-19T02:45:05.584Z,1
2023-03-19T02:47:05.562Z,1
2023-03-19T02:49:05.657Z,1
2023-03-19T02:51:05.734Z,1
2023-03-19T02:55:05.625Z,1
2023-03-19T02:57:05.819Z,1
2023-03-19T02:59:06.209Z,1
2023-03-19T03:01:08.896Z,1
2023-03-19T03:05:05.755Z,1
2023-03-19T03:07:09.651Z,1
2023-03-19T03:09:05.658Z,1
2023-03-19T03:11:08.888Z,1
2023-03-19T03:13:09.557Z,1
2023-03-19T03:15:12.442Z,1
2023-03-19T03:17:06.686Z,1
2023-03-19T03:19:09.479Z,1
2023-03-19T03:21:05.650Z,1
2023-03-19T03:23:05.822Z,1
2023-03-19T03:25:05.688Z,1
2023-03-19T03:27:06.339Z,1
2023-03-19T03:29:09.428Z,1
2023-03-19T03:31:09.301Z,1
2023-03-19T03:33:06.433Z,1
2023-03-19T03:35:09.126Z,1
2023-03-19T03:37:06.329Z,1
2023-03-19T03:39:12.240Z,1
2023-03-19T03:41:05.666Z,1
2023-03-19T03:43:07.581Z,1
2023-03-19T03:45:05.832Z,1
2023-03-19T03:47:05.595Z,1
2023-03-19T03:49:06.097Z,1
2023-03-19T03:51:06.349Z,1
2023-03-19T03:53:09.588Z,1
2023-03-19T03:55:06.044Z,1
2023-03-19T03:57:09.438Z,1
2023-03-19T03:59:09.323Z,1
2023-03-19T04:01:06.355Z,1
2023-03-19T04:03:08.830Z,1
2023-03-19T04:05:09.079Z,1
2023-03-19T04:07:06.214Z,1
2023-03-19T04:09:12.585Z,1
2023-03-19T04:11:06.373Z,1
2023-03-19T04:13:12.206Z,1
2023-03-19T04:15:05.921Z,1
2023-03-19T04:17:09.762Z,1
2023-03-19T04:19:06.172Z,1
2023-03-19T04:21:09.096Z,1
2023-03-19T04:23:06.216Z,1
2023-03-19T04:25:05.808Z,1
2023-03-19T04:27:06.427Z,1
2023-03-19T04:29:05.848Z,1
2023-03-19T04:31:06.427Z,1
2023-03-19T04:33:06.076Z,1
2023-03-19T04:35:05.648Z,1
2023-03-19T04:37:12.651Z,1
2023-03-19T04:39:05.969Z,1
2023-03-19T04:41:05.770Z,1
2023-03-19T04:43:05.848Z,0
2023-03-19T04:45:06.179Z,0
2023-03-19T04:47:05.890Z,0
2023-03-19T04:49:05.906Z,0
2023-03-19T04:51:06.483Z,0.1
2023-03-19T04:53:06.434Z,0.2
2023-03-19T04:57:06.303Z,0.3
2023-03-19T04:59:05.989Z,0.4
2023-03-19T05:01:06.345Z,0.7
2023-03-19T05:03:05.901Z,1.1
2023-03-19T05:05:09.098Z,1.7
2023-03-19T05:07:06.500Z,2.6
2023-03-19T05:09:09.548Z,4.1
2023-03-19T05:13:06.128Z,8.2
2023-03-19T05:15:05.773Z,11.6
2023-03-19T05:17:05.661Z,14.9
2023-03-19T05:19:06.383Z,19.1
2023-03-19T05:21:06.305Z,22.2
2023-03-19T05:23:06.290Z,25.8
2023-03-19T05:25:05.906Z,30
2023-03-19T05:27:12.648Z,33.1
2023-03-19T05:29:05.913Z,38.5
2023-03-19T05:31:06.578Z,44.7
2023-03-19T05:33:09.703Z,49.4
2023-03-19T05:35:06.260Z,54.6
2023-03-19T05:37:05.985Z,60.3
2023-03-19T05:39:06.320Z,66.7
2023-03-19T05:41:06.109Z,73.7
2023-03-19T05:43:05.881Z,81.5
2023-03-19T05:45:09.622Z,94.6
2023-03-19T05:47:05.839Z,104.6
2023-03-19T05:49:05.743Z,109.9
2023-03-19T05:51:06.227Z,121.5
2023-03-19T05:53:06.241Z,127.7
2023-03-19T05:55:05.938Z,134.3
2023-03-19T05:57:05.905Z,148.4
2023-03-19T05:59:06.046Z,156
2023-03-19T06:01:05.901Z,172.4
2023-03-19T06:03:05.968Z,190.6
2023-03-19T06:05:05.874Z,221.4
2023-03-19T06:07:09.608Z,244.7
2023-03-19T06:09:05.675Z,284.3
2023-03-19T06:11:06.152Z,330.3
2023-03-19T06:13:06.328Z,383.8
2023-03-19T06:15:05.816Z,424.1
2023-03-19T06:17:06.623Z,468.7
2023-03-19T06:19:05.767Z,492.7
2023-03-19T06:21:05.799Z,518
2023-03-19T06:23:06.283Z,544.6
2023-03-19T06:25:06.217Z,544.6
2023-03-19T06:27:05.804Z,572.5
2023-03-19T06:29:05.779Z,572.5
2023-03-19T06:31:06.297Z,572.5
2023-03-19T06:33:06.461Z,572.5
2023-03-19T06:35:05.725Z,601.8
2023-03-19T06:37:09.486Z,632.7
2023-03-19T06:39:05.914Z,632.7
2023-03-19T06:41:05.939Z,665.1
2023-03-19T06:43:09.154Z,665.1
2023-03-19T06:45:05.819Z,665.1
2023-03-19T06:47:12.683Z,665.1
2023-03-19T06:49:05.692Z,665.1
2023-03-19T06:51:05.694Z,699.2
2023-03-19T06:53:06.261Z,699.2
2023-03-19T06:55:05.861Z,699.2
2023-03-19T06:57:06.469Z,699.2
2023-03-19T07:01:05.784Z,665.1
2023-03-19T07:03:06.296Z,665.1
2023-03-19T07:05:06.249Z,632.7
2023-03-19T07:07:06.083Z,601.8
2023-03-19T07:09:09.600Z,601.8
2023-03-19T07:13:06.268Z,572.5
2023-03-19T07:15:06.127Z,572.5
2023-03-19T07:17:05.665Z,572.5
2023-03-19T07:19:06.332Z,601.8
2023-03-19T07:21:09.258Z,665.1
2023-03-19T07:23:05.687Z,699.2
2023-03-19T07:25:09.155Z,735.1
2023-03-19T07:27:06.278Z,772.8
2023-03-19T07:29:06.668Z,812.4
2023-03-19T07:31:06.443Z,812.4
2023-03-19T07:33:05.660Z,812.4
2023-03-19T07:35:09.495Z,812.4
2023-03-19T07:37:06.422Z,812.4
2023-03-19T07:39:05.866Z,854.1
2023-03-19T07:41:06.741Z,897.8
2023-03-19T07:43:05.891Z,943.9
2023-03-19T07:45:09.561Z,943.9
2023-03-19T07:47:08.162Z,1096.6
2023-03-19T07:49:09.617Z,1212
2023-03-19T07:51:06.243Z,1408.1
2023-03-19T07:53:09.664Z,1556.2
2023-03-19T07:55:09.755Z,1719.9
2023-03-19T07:57:06.366Z,1808
2023-03-19T07:59:06.569Z,1808
2023-03-19T08:01:05.685Z,1900.7
2023-03-19T08:03:09.572Z,1808
2023-03-19T08:05:05.674Z,1808
2023-03-19T08:07:05.690Z,1719.9
2023-03-19T08:09:12.645Z,1556.2
2023-03-19T08:11:05.791Z,1408.1
2023-03-19T08:13:05.874Z,1339.4
2023-03-19T08:15:12.348Z,1339.4
2023-03-19T08:17:05.874Z,1408.1
2023-03-19T08:19:06.363Z,1408.1
2023-03-19T08:21:06.067Z,1408.1
2023-03-19T08:23:05.711Z,1339.4
2023-03-19T08:25:06.104Z,1339.4
2023-03-19T08:27:09.526Z,1339.4
2023-03-19T08:29:05.679Z,1339.4
2023-03-19T08:31:06.329Z,1339.4
2023-03-19T08:33:06.092Z,1408.1
2023-03-19T08:35:06.587Z,1636
2023-03-19T08:37:06.296Z,1998.2
2023-03-19T08:39:05.839Z,2440.6
2023-03-19T08:41:06.324Z,2835.6
2023-03-19T08:43:05.785Z,3133.8
2023-03-19T08:45:09.240Z,3133.8
2023-03-19T08:47:12.657Z,2981
2023-03-19T08:49:06.395Z,2981
2023-03-19T08:51:09.276Z,2981
2023-03-19T08:53:05.864Z,2981
2023-03-19T08:55:05.748Z,2981
2023-03-19T08:57:09.258Z,3133.8
2023-03-19T08:59:05.805Z,3133.8
2023-03-19T09:01:12.539Z,3294.5
2023-03-19T09:03:05.893Z,3827.6
2023-03-19T09:05:09.675Z,4447.1
2023-03-19T09:07:09.599Z,4914.8
2023-03-19T09:09:06.118Z,4675.1
2023-03-19T09:13:05.932Z,4230.2
2023-03-19T09:15:06.447Z,4230.2
2023-03-19T09:17:06.314Z,4230.2
2023-03-19T09:19:09.554Z,4230.2
2023-03-19T09:21:06.568Z,4230.2
2023-03-19T09:23:09.656Z,4023.9
2023-03-19T09:25:05.795Z,4023.9
2023-03-19T09:27:05.638Z,3827.6
2023-03-19T09:29:05.691Z,3827.6
2023-03-19T09:31:12.785Z,3827.6
2023-03-19T09:33:05.867Z,3641
2023-03-19T09:35:05.673Z,3463.4
2023-03-19T09:37:06.572Z,3133.8
2023-03-19T09:39:05.697Z,2981
2023-03-19T09:41:06.279Z,2981
2023-03-19T09:43:05.937Z,2981
2023-03-19T09:45:09.264Z,2981
2023-03-19T09:47:05.857Z,2835.6
2023-03-19T09:49:08.864Z,2565.7
2023-03-19T09:51:09.591Z,2321.6
2023-03-19T09:53:05.738Z,2100.6
2023-03-19T09:55:05.846Z,1900.7
2023-03-19T09:57:06.876Z,1808
2023-03-19T09:59:09.528Z,1719.9
2023-03-19T10:01:05.767Z,1719.9
2023-03-19T10:03:05.836Z,1719.9
2023-03-19T10:05:06.204Z,1719.9
2023-03-19T10:07:05.995Z,1719.9
2023-03-19T10:09:09.734Z,1900.7
2023-03-19T10:11:06.295Z,2208.3
2023-03-19T10:13:05.699Z,2697.3
2023-03-19T10:15:06.570Z,2981
2023-03-19T10:17:06.032Z,3133.8
2023-03-19T10:19:05.882Z,3641
2023-03-19T10:21:12.350Z,4230.2
2023-03-19T10:23:09.613Z,4447.1
2023-03-19T10:25:08.795Z,4675.1
2023-03-19T10:27:05.728Z,4447.1
2023-03-19T10:29:05.920Z,4675.1
2023-03-19T10:31:05.891Z,4914.8
2023-03-19T10:33:05.770Z,4675.1
2023-03-19T10:35:08.784Z,4230.2
2023-03-19T10:37:09.219Z,4230.2
2023-03-19T10:39:05.753Z,4230.2
2023-03-19T10:41:06.351Z,4447.1
2023-03-19T10:43:05.939Z,4447.1
2023-03-19T10:45:12.671Z,4230.2
2023-03-19T10:47:12.850Z,4230.2
2023-03-19T10:49:05.695Z,4023.9
2023-03-19T10:51:06.251Z,3827.6
2023-03-19T10:53:05.949Z,4023.9
2023-03-19T10:55:05.805Z,4023.9
2023-03-19T10:57:06.338Z,4023.9
2023-03-19T10:59:05.857Z,4230.2
2023-03-19T11:01:05.888Z,4447.1
2023-03-19T11:03:05.844Z,4447.1
2023-03-19T11:05:05.717Z,4675.1
2023-03-19T11:07:12.642Z,5166.8
2023-03-19T11:09:05.635Z,5710.1
2023-03-19T11:11:05.895Z,6634.2
2023-03-19T11:13:05.984Z,7707.9
2023-03-19T11:15:09.678Z,8518.5
2023-03-19T11:17:12.763Z,10938
2023-03-19T11:19:09.699Z,14044.7
2023-03-19T11:21:06.270Z,15521.8
2023-03-19T11:23:05.973Z,14044.7
2023-03-19T11:25:06.074Z,14764.8
2023-03-19T11:27:06.148Z,16317.6
2023-03-19T11:29:09.172Z,16317.6
2023-03-19T11:31:05.934Z,15521.8
2023-03-19T11:33:05.798Z,14764.8
2023-03-19T11:35:11.904Z,12708.2
2023-03-19T11:37:06.345Z,12088.4
2023-03-19T11:39:06.319Z,12708.2
2023-03-19T11:41:06.265Z,12708.2
2023-03-19T11:43:05.956Z,14044.7
2023-03-19T11:45:05.734Z,16317.6
2023-03-19T11:47:21.128Z,17154.2
2023-03-19T11:49:08.801Z,17154.2
2023-03-19T11:51:09.563Z,14044.7
2023-03-19T11:53:05.699Z,13359.7
2023-03-19T11:55:09.340Z,13359.7
2023-03-19T11:59:05.718Z,16317.6
2023-03-19T12:01:05.879Z,19930.4
2023-03-19T12:03:09.142Z,19930.4
2023-03-19T12:05:05.762Z,19930.4
2023-03-19T12:09:09.687Z,18033.7
2023-03-19T12:11:08.792Z,18033.7
2023-03-19T12:13:05.697Z,18958.4
2023-03-19T12:15:05.838Z,18958.4
2023-03-19T12:17:09.610Z,18033.7
2023-03-19T12:19:12.801Z,18033.7
2023-03-19T12:21:09.635Z,18033.7
2023-03-19T12:23:05.650Z,18958.4
2023-03-19T12:25:05.689Z,18958.4
2023-03-19T12:27:06.186Z,18033.7
2023-03-19T12:29:05.711Z,18033.7
2023-03-19T12:31:12.792Z,18033.7
2023-03-19T12:33:05.749Z,16317.6
2023-03-19T12:37:06.344Z,17154.2
2023-03-19T12:39:06.369Z,18958.4
2023-03-19T12:41:06.287Z,19930.4
2023-03-19T12:43:05.813Z,19930.4
2023-03-19T12:45:05.824Z,18958.4
2023-03-19T12:47:06.447Z,18958.4
2023-03-19T12:49:05.729Z,18033.7
2023-03-19T12:51:10.415Z,18033.7
2023-03-19T12:53:05.713Z,17154.2
2023-03-19T12:55:06.262Z,16317.6
2023-03-19T12:57:05.961Z,16317.6
2023-03-19T12:59:09.679Z,12708.2
2023-03-19T13:01:05.848Z,15521.8
2023-03-19T13:03:06.040Z,13359.7
2023-03-19T13:05:09.689Z,13359.7
2023-03-19T13:07:06.355Z,12708.2
2023-03-19T13:09:09.871Z,14044.7
2023-03-19T13:11:05.722Z,13359.7
2023-03-19T13:13:05.869Z,14764.8
2023-03-19T13:15:05.901Z,12088.4
2023-03-19T13:17:09.612Z,13359.7
2023-03-19T13:19:05.893Z,12088.4
2023-03-19T13:21:05.746Z,10938
2023-03-19T13:23:05.959Z,6974.4
2023-03-19T13:25:09.694Z,6002.9
2023-03-19T13:27:05.661Z,4447.1
2023-03-19T13:29:05.978Z,4230.2
2023-03-19T13:31:06.388Z,4023.9
2023-03-19T13:33:06.132Z,4230.2
2023-03-19T13:35:05.899Z,4447.1
2023-03-19T13:37:06.045Z,4914.8
2023-03-19T13:39:06.404Z,6310.7
2023-03-19T13:41:06.088Z,9897.1
2023-03-19T13:43:13.114Z,12088.4
2023-03-19T13:45:06.331Z,12708.2
2023-03-19T13:47:05.851Z,11498.8
2023-03-19T13:49:05.903Z,9897.1
2023-03-19T13:51:06.473Z,10404.6
2023-03-19T13:53:05.940Z,10404.6
2023-03-19T13:57:05.734Z,6310.7
2023-03-19T13:59:05.836Z,5710.1
2023-03-19T14:01:06.089Z,6002.9
2023-03-19T14:03:06.652Z,6634.2
2023-03-19T14:05:05.756Z,6634.2
2023-03-19T14:07:05.775Z,6974.4
2023-03-19T14:09:06.355Z,8518.5
2023-03-19T14:11:05.804Z,8955.3
2023-03-19T14:13:06.344Z,9414.4
2023-03-19T14:15:05.785Z,10404.6
2023-03-19T14:17:05.884Z,10404.6
2023-03-19T14:19:06.386Z,8955.3
2023-03-19T14:21:08.764Z,8103.1
2023-03-19T14:23:06.466Z,8518.5
2023-03-19T14:25:06.417Z,8955.3
2023-03-19T14:27:06.010Z,9414.4
2023-03-19T14:29:05.996Z,8955.3
2023-03-19T14:31:05.832Z,8518.5
2023-03-19T14:33:05.933Z,8518.5
2023-03-19T14:35:06.415Z,9414.4
2023-03-19T14:37:05.892Z,10404.6
2023-03-19T14:39:09.548Z,10404.6
2023-03-19T14:41:09.694Z,8955.3
2023-03-19T14:43:05.736Z,7707.9
2023-03-19T14:45:06.240Z,7707.9
2023-03-19T14:47:05.709Z,7332
2023-03-19T14:49:06.313Z,6974.4
2023-03-19T14:51:05.788Z,6974.4
2023-03-19T14:53:06.620Z,7332
2023-03-19T14:55:06.586Z,8103.1
2023-03-19T14:57:09.706Z,7707.9
2023-03-19T14:59:06.250Z,7707.9
2023-03-19T15:01:09.696Z,7707.9
2023-03-19T15:03:09.709Z,8103.1
2023-03-19T15:05:06.515Z,7707.9
2023-03-19T15:07:12.731Z,8518.5
2023-03-19T15:09:06.257Z,7707.9
2023-03-19T15:11:09.671Z,7707.9
2023-03-19T15:13:06.226Z,6974.4
2023-03-19T15:15:09.803Z,7332
2023-03-19T15:17:05.797Z,6634.2
2023-03-19T15:19:09.441Z,6974.4
2023-03-19T15:21:06.313Z,6310.7
2023-03-19T15:23:10.994Z,7332
2023-03-19T15:25:05.795Z,6634.2
2023-03-19T15:27:05.962Z,6310.7
2023-03-19T15:29:12.212Z,6002.9
2023-03-19T15:31:25.715Z,6002.9
2023-03-19T15:33:14.587Z,6002.9
2023-03-19T15:37:05.892Z,5166.8
2023-03-19T15:39:06.593Z,6310.7
2023-03-19T15:41:06.008Z,6634.2
2023-03-19T15:43:09.625Z,6634.2
2023-03-19T15:45:06.343Z,6974.4
2023-03-19T15:47:06.055Z,6974.4
2023-03-19T15:49:09.502Z,6002.9
2023-03-19T15:51:06.496Z,6310.7
2023-03-19T15:53:05.796Z,5431.7
2023-03-19T15:55:09.640Z,4914.8
2023-03-19T15:57:06.388Z,5166.8
2023-03-19T15:59:05.751Z,5431.7
2023-03-19T16:01:06.690Z,4914.8
2023-03-19T16:03:06.253Z,3827.6
2023-03-19T16:05:21.758Z,3463.4
2023-03-19T16:07:09.750Z,2981
2023-03-19T16:09:12.855Z,2835.6
2023-03-19T16:11:05.878Z,2440.6
2023-03-19T16:13:09.635Z,2100.6
2023-03-19T16:15:09.612Z,1998.2
2023-03-19T16:17:06.653Z,1808
2023-03-19T16:19:05.902Z,1719.9
2023-03-19T16:21:06.425Z,1556.2
2023-03-19T16:23:05.931Z,1480.3
2023-03-19T16:25:05.683Z,1408.1
2023-03-19T16:27:05.875Z,1408.1
2023-03-19T16:33:06.139Z,1274.1
2023-03-19T16:35:06.065Z,1152.9
2023-03-19T16:37:06.484Z,1096.6
2023-03-19T16:39:06.035Z,992.3
2023-03-19T16:41:06.865Z,897.8
2023-03-19T16:43:05.860Z,735.1
2023-03-19T16:45:06.448Z,665.1
2023-03-19T16:47:05.731Z,572.5
2023-03-19T16:51:09.634Z,403.4
2023-03-19T16:53:05.741Z,330.3
2023-03-19T16:55:09.650Z,270.4
2023-03-19T16:57:06.371Z,221.4
2023-03-19T16:59:05.714Z,181.3
2023-03-19T17:03:05.688Z,121.5
2023-03-19T17:05:06.796Z,99.5
2023-03-19T17:07:05.903Z,77.5
2023-03-19T17:09:06.546Z,60.3
2023-03-19T17:11:09.222Z,47
2023-03-19T17:13:06.047Z,34.8
2023-03-19T17:15:05.832Z,27.1
2023-03-19T17:17:05.813Z,22.2
2023-03-19T17:21:06.430Z,15.6
2023-03-19T17:23:05.929Z,12.8
2023-03-19T17:25:06.460Z,10.5
2023-03-19T17:27:09.603Z,7.8
2023-03-19T17:29:05.847Z,5.8
2023-03-19T17:31:12.801Z,4.3
2023-03-19T17:33:09.635Z,3.3
2023-03-19T17:35:05.866Z,2.5
2023-03-19T17:37:05.830Z,1.9
2023-03-19T17:39:12.685Z,1.5
2023-03-19T17:41:05.868Z,1.2
2023-03-19T17:43:05.915Z,1
2023-03-19T17:45:06.361Z,0.7
2023-03-19T17:47:05.770Z,0.6
2023-03-19T17:49:06.471Z,0.5
2023-03-19T17:51:12.711Z,0.4
2023-03-19T17:53:06.288Z,0.3
2023-03-19T17:55:05.935Z,0.2
2023-03-19T17:57:06.121Z,0.2
2023-03-19T17:59:09.447Z,0.1
2023-03-19T18:01:06.340Z,0
2023-03-19T18:03:05.746Z,0
2023-03-19T18:05:06.457Z,0
2023-03-19T18:07:06.244Z,1
2023-03-19T18:09:06.154Z,1
2023-03-19T18:11:09.691Z,1
2023-03-19T18:13:07.412Z,1
2023-03-19T18:15:12.708Z,1
2023-03-19T18:17:05.757Z,1
2023-03-19T18:19:12.828Z,1
2023-03-19T18:23:05.877Z,1
2023-03-19T18:25:06.533Z,1
2023-03-19T18:27:06.104Z,1
2023-03-19T18:29:05.935Z,1
2023-03-19T18:31:05.757Z,1
2023-03-19T18:33:05.912Z,1
2023-03-19T18:35:06.269Z,1
2023-03-19T18:37:09.696Z,1
2023-03-19T18:39:06.055Z,1
2023-03-19T18:41:06.669Z,1
2023-03-19T18:43:09.664Z,1
2023-03-19T18:45:12.812Z,1
2023-03-19T18:47:06.231Z,1
2023-03-19T18:49:05.902Z,1
2023-03-19T18:51:09.673Z,1
2023-03-19T18:53:06.387Z,1
2023-03-19T18:55:09.670Z,1
2023-03-19T18:57:05.860Z,1
2023-03-19T18:59:05.765Z,1
2023-03-19T19:01:09.611Z,1
2023-03-19T19:03:05.763Z,1
2023-03-19T19:05:09.710Z,1
2023-03-19T19:07:06.374Z,1
2023-03-19T19:09:06.443Z,1
2023-03-19T19:11:09.999Z,1
2023-03-19T19:13:05.873Z,1
2023-03-19T19:15:09.569Z,1
2023-03-19T19:17:05.860Z,1
2023-03-19T19:19:09.223Z,1
2023-03-19T19:21:06.032Z,1
2023-03-19T19:23:05.770Z,1
2023-03-19T19:25:06.514Z,1
2023-03-19T19:27:06.476Z,1
2023-03-19T19:29:06.425Z,1
2023-03-19T19:31:06.320Z,1
2023-03-19T19:33:06.596Z,1
2023-03-19T19:35:05.898Z,1
2023-03-19T19:37:05.788Z,1
2023-03-19T19:39:06.219Z,1
2023-03-19T19:41:05.752Z,1
2023-03-19T19:43:06.295Z,1
2023-03-19T19:45:12.718Z,1
2023-03-19T19:47:09.664Z,1
2023-03-19T19:49:06.472Z,1
2023-03-19T19:51:09.573Z,1
2023-03-19T19:53:06.117Z,1
2023-03-19T19:55:06.224Z,1
2023-03-19T19:57:05.773Z,1
2023-03-19T19:59:06.307Z,1
2023-03-19T20:01:06.655Z,1
2023-03-19T20:03:09.619Z,1
2023-03-19T20:05:05.917Z,1
2023-03-19T20:07:09.625Z,1
2023-03-19T20:09:05.784Z,1
2023-03-19T20:11:06.328Z,1
2023-03-19T20:13:06.172Z,1
2023-03-19T20:15:06.056Z,1
2023-03-19T20:17:12.918Z,1
2023-03-19T20:19:06.409Z,1
2023-03-19T20:21:06.547Z,1
2023-03-19T20:23:06.332Z,1
2023-03-19T20:25:09.686Z,1
2023-03-19T20:27:09.678Z,1
2023-03-19T20:29:06.074Z,1
2023-03-19T20:31:05.923Z,1
2023-03-19T20:33:09.551Z,1
2023-03-19T20:35:09.634Z,1
2023-03-19T20:37:06.490Z,1
2023-03-19T20:39:06.244Z,1
2023-03-19T20:41:06.023Z,1
2023-03-19T20:43:06.564Z,1
2023-03-19T20:45:09.691Z,1
2023-03-19T20:47:09.500Z,1
2023-03-19T20:49:06.315Z,1
2023-03-19T20:51:06.294Z,1
2023-03-19T20:53:05.767Z,1
2023-03-19T20:55:09.741Z,1
2023-03-19T20:57:06.550Z,1
2023-03-19T21:01:05.859Z,1
2023-03-19T21:03:09.690Z,1
2023-03-19T21:05:06.781Z,1
2023-03-19T21:07:06.184Z,1
2023-03-19T21:09:09.665Z,1
2023-03-19T21:11:06.280Z,1
2023-03-19T21:13:06.421Z,1
2023-03-19T21:15:05.768Z,1
2023-03-19T21:17:09.598Z,1
2023-03-19T21:19:06.310Z,1
2023-03-19T21:21:06.483Z,1
2023-03-19T21:23:06.395Z,1
2023-03-19T21:25:06.599Z,1
2023-03-19T21:27:05.829Z,1
2023-03-19T21:29:05.864Z,1
2023-03-19T21:31:06.493Z,1
2023-03-19T21:33:12.814Z,1
2023-03-19T21:35:06.888Z,1
2023-03-19T21:37:06.415Z,1
2023-03-19T21:39:09.596Z,1
2023-03-19T21:41:05.783Z,1
2023-03-19T21:45:06.427Z,1
2023-03-19T21:47:12.908Z,1
2023-03-19T21:51:06.628Z,1
2023-03-19T21:53:06.120Z,1
2023-03-19T21:55:06.309Z,1
2023-03-19T21:57:06.207Z,1
2023-03-19T21:59:09.732Z,1
2023-03-19T22:01:09.323Z,1
2023-03-19T22:03:05.936Z,1
2023-03-19T22:05:09.630Z,1
2023-03-19T22:07:05.865Z,1
2023-03-19T22:09:06.208Z,1
2023-03-19T22:11:06.581Z,1
2023-03-19T22:13:06.584Z,1
2023-03-19T22:15:06.229Z,1
2023-03-19T22:17:09.720Z,1
2023-03-19T22:19:06.399Z,1
2023-03-19T22:21:06.483Z,1
2023-03-19T22:23:09.685Z,1
2023-03-19T22:27:12.788Z,1
2023-03-19T22:29:12.698Z,1
2023-03-19T22:31:09.630Z,1
2023-03-19T22:33:09.634Z,1
2023-03-19T22:35:13.129Z,1
2023-03-19T22:37:06.178Z,1
2023-03-19T22:39:06.367Z,1
2023-03-19T22:41:05.896Z,1
2023-03-19T22:43:09.695Z,1
2023-03-19T22:45:05.773Z,1
2023-03-19T22:47:09.576Z,1
2023-03-19T22:49:06.595Z,1
2023-03-19T22:51:06.205Z,1
2023-03-19T22:53:09.645Z,1
2023-03-19T22:55:05.807Z,1
2023-03-19T22:59:09.232Z,1
2023-03-19T23:01:09.424Z,1
2023-03-19T23:03:05.801Z,1
2023-03-19T23:05:06.484Z,1
2023-03-19T23:07:06.076Z,1
2023-03-19T23:09:05.990Z,1
2023-03-19T23:11:06.380Z,1
2023-03-19T23:13:05.768Z,1
2023-03-19T23:15:06.249Z,1
2023-03-19T23:17:06.383Z,1
2023-03-19T23:19:06.423Z,1
2023-03-19T23:21:05.891Z,1
2023-03-19T23:23:06.513Z,1
2023-03-19T23:25:05.892Z,1
2023-03-19T23:27:09.726Z,1
2023-03-19T23:29:06.143Z,1
2023-03-19T23:31:05.949Z,1
2023-03-19T23:33:06.298Z,1
2023-03-19T23:35:12.729Z,1
2023-03-19T23:37:06.006Z,1
2023-03-19T23:39:06.016Z,1
2023-03-19T23:41:05.761Z,1
2023-03-19T23:43:05.874Z,1
2023-03-19T23:45:06.319Z,1
2023-03-19T23:47:09.618Z,1
2023-03-19T23:49:05.776Z,1
2023-03-19T23:51:05.950Z,1
2023-03-19T23:53:06.506Z,1
2023-03-19T23:55:06.236Z,1
2023-03-19T23:57:06.181Z,1
2023-03-19T23:59:06.459Z,1
